createdAt,value
2018-07-11T00:04:55.275Z,14.10
2018-07-11T00:11:01.196Z,14.10
2018-07-11T00:17:10.985Z,14.10
2018-07-11T00:23:17.123Z,14.00
2018-07-11T00:29:27.919Z,13.90
2018-07-11T00:35:33.647Z,13.90
2018-07-11T00:41:39.570Z,14.00
2018-07-11T00:47:45.614Z,14.00
2018-07-11T00:53:53.111Z,14.10
2018-07-11T00:59:59.238Z,14.10
2018-07-11T01:06:05.066Z,14.00
2018-07-11T01:12:10.983Z,14.00
2018-07-11T01:18:17.957Z,14.10
2018-07-11T01:24:23.806Z,14.10
2018-07-11T01:30:29.577Z,14.10
2018-07-11T01:36:35.462Z,14.00
2018-07-11T01:42:41.362Z,13.80
2018-07-11T01:48:47.497Z,13.80
2018-07-11T01:54:53.792Z,13.70
2018-07-11T02:00:59.542Z,13.60
2018-07-11T02:07:05.837Z,13.50
2018-07-11T02:13:11.589Z,13.40
2018-07-11T02:19:21.965Z,13.20
2018-07-11T02:25:28.513Z,13.10
2018-07-11T02:31:34.332Z,13.00
2018-07-11T02:37:40.485Z,13.00
2018-07-11T02:43:46.290Z,12.80
2018-07-11T02:49:54.398Z,12.80
2018-07-11T02:56:00.177Z,12.80
2018-07-11T03:02:05.913Z,12.80
2018-07-11T03:08:12.271Z,12.90
2018-07-11T03:14:18.467Z,12.90
2018-07-11T03:20:26.106Z,13.00
2018-07-11T03:26:31.888Z,13.00
2018-07-11T03:32:37.667Z,13.00
2018-07-11T03:38:43.696Z,13.10
2018-07-11T03:44:49.806Z,13.10
2018-07-11T03:50:55.636Z,13.20
2018-07-11T03:57:01.466Z,13.10
2018-07-11T04:03:07.185Z,13.20
2018-07-11T04:09:13.085Z,13.20
2018-07-11T04:15:18.874Z,13.10
2018-07-11T04:21:26.614Z,13.20
2018-07-11T04:27:32.347Z,13.30
2018-07-11T04:33:38.388Z,13.40
2018-07-11T04:39:44.232Z,13.50
2018-07-11T04:45:50.612Z,13.50
2018-07-11T04:51:57.092Z,13.70
2018-07-11T04:58:02.840Z,13.80
2018-07-11T05:04:08.673Z,13.90
2018-07-11T05:10:14.350Z,13.90
2018-07-11T05:16:20.588Z,13.90
2018-07-11T05:22:26.644Z,14.00
2018-07-11T05:28:32.311Z,13.90
2018-07-11T05:34:38.397Z,13.80
2018-07-11T05:40:44.137Z,13.90
2018-07-11T05:46:54.612Z,14.10
2018-07-11T05:53:00.377Z,14.20
2018-07-11T05:59:06.349Z,14.20
2018-07-11T06:05:12.103Z,14.20
2018-07-11T06:11:25.600Z,14.40
2018-07-11T06:17:31.765Z,14.40
2018-07-11T06:23:37.592Z,14.50
2018-07-11T06:29:43.305Z,14.50
2018-07-11T06:35:49.482Z,14.60
2018-07-11T06:41:55.394Z,14.70
2018-07-11T06:48:01.650Z,14.90
2018-07-11T06:54:07.888Z,15.10
2018-07-11T07:00:13.643Z,15.20
2018-07-11T07:06:19.601Z,15.10
2018-07-11T07:12:25.777Z,15.30
2018-07-11T07:18:31.576Z,15.80
2018-07-11T07:24:37.277Z,16.40
2018-07-11T07:30:42.939Z,17.00
2018-07-11T07:36:49.251Z,17.30
2018-07-11T07:42:55.618Z,17.60
2018-07-11T07:49:01.344Z,18.30
2018-07-11T07:55:07.164Z,18.50
2018-07-11T08:01:12.880Z,18.30
2018-07-11T08:07:18.651Z,18.50
2018-07-11T08:13:24.769Z,18.50
2018-07-11T08:19:30.633Z,18.60
2018-07-11T08:34:15.867Z,17.90
2018-07-11T08:41:36.638Z,17.40
2018-07-11T08:48:06.016Z,17.40
2018-07-11T08:56:54.595Z,17.90
2018-07-11T09:04:17.686Z,18.20
2018-07-11T09:11:51.569Z,18.20
2018-07-11T09:22:22.476Z,18.10
2018-07-11T09:28:28.207Z,18.20
2018-07-11T09:34:34.200Z,18.50
2018-07-11T09:40:39.972Z,18.40
2018-07-11T09:46:45.816Z,18.50
2018-07-11T09:52:52.252Z,18.90
2018-07-11T09:58:58.165Z,19.00
2018-07-11T10:05:04.218Z,19.40
2018-07-11T10:11:09.829Z,20.20
2018-07-11T10:17:15.565Z,20.50
2018-07-11T10:23:23.695Z,21.20
2018-07-11T10:29:30.372Z,20.80
2018-07-11T10:35:36.093Z,20.60
2018-07-11T10:41:41.710Z,20.30
2018-07-11T10:47:47.448Z,20.20
2018-07-11T10:53:53.419Z,20.10
2018-07-11T10:59:59.295Z,19.70
2018-07-11T11:06:05.041Z,19.40
2018-07-11T11:12:10.829Z,19.50
2018-07-11T11:18:16.650Z,19.30
2018-07-11T11:24:23.154Z,19.20
2018-07-11T11:30:28.838Z,18.70
2018-07-11T11:36:34.624Z,18.30
2018-07-11T11:42:40.508Z,17.90
2018-07-11T11:48:46.272Z,17.70
2018-07-11T11:54:53.115Z,17.40
2018-07-11T12:00:59.476Z,17.60
2018-07-11T12:07:05.591Z,18.10
2018-07-11T12:13:11.275Z,18.40
2018-07-11T12:19:17.046Z,18.70
2018-07-11T12:25:23.677Z,18.60
2018-07-11T12:31:29.629Z,18.70
2018-07-11T12:37:35.419Z,19.10
2018-07-11T12:43:41.326Z,19.20
2018-07-11T12:49:47.189Z,19.20
2018-07-11T12:55:53.488Z,19.20
2018-07-11T13:01:59.802Z,19.00
2018-07-11T13:08:05.626Z,18.80
2018-07-11T13:14:11.328Z,18.70
2018-07-11T13:20:17.354Z,18.80
2018-07-11T13:26:24.033Z,18.60
2018-07-11T13:32:31.176Z,18.80
2018-07-11T13:38:37.803Z,19.10
2018-07-11T13:44:43.513Z,19.20
2018-07-11T13:50:50.273Z,19.40
2018-07-11T13:56:56.511Z,20.50
2018-07-11T14:03:03.145Z,21.00
2018-07-11T14:09:08.868Z,20.30
2018-07-11T14:15:14.832Z,20.20
2018-07-11T14:21:21.108Z,19.90
2018-07-11T14:27:28.820Z,19.40
2018-07-11T14:39:41.478Z,18.70
2018-07-11T14:45:47.565Z,18.60
2018-07-11T14:51:54.414Z,18.40
2018-07-11T14:58:00.370Z,18.10
2018-07-11T15:04:06.680Z,18.10
2018-07-11T15:10:12.636Z,18.10
2018-07-11T15:16:18.699Z,18.10
2018-07-11T15:22:25.761Z,18.20
2018-07-11T15:28:31.848Z,18.10
2018-07-11T15:34:38.133Z,17.80
2018-07-11T15:40:44.445Z,17.50
2018-07-11T15:46:51.158Z,17.60
2018-07-11T15:52:58.264Z,17.70
2018-07-11T15:59:10.192Z,17.70
2018-07-11T16:05:20.660Z,17.60
2018-07-11T16:11:27.169Z,17.70
2018-07-11T16:17:33.025Z,17.90
2018-07-11T16:23:38.918Z,18.00
2018-07-11T16:29:45.225Z,18.10
2018-07-11T16:35:52.513Z,18.00
2018-07-11T16:41:58.772Z,17.80
2018-07-11T16:48:04.607Z,17.80
2018-07-11T16:54:10.418Z,17.70
2018-07-11T17:00:17.625Z,17.40
2018-07-11T17:06:23.742Z,17.20
2018-07-11T17:12:29.786Z,17.00
2018-07-11T17:18:48.509Z,17.00
2018-07-11T17:24:55.195Z,16.90
2018-07-11T17:31:01.564Z,17.00
2018-07-11T17:37:08.667Z,17.00
2018-07-11T17:43:17.980Z,16.80
2018-07-11T17:49:34.204Z,16.80
2018-07-11T17:55:59.024Z,16.80
2018-07-11T18:02:14.636Z,16.80
2018-07-11T18:08:21.681Z,16.70
2018-07-11T18:15:34.538Z,16.60
2018-07-11T18:27:38.326Z,16.60
2018-07-11T18:35:01.316Z,16.40
2018-07-11T18:41:10.619Z,16.20
2018-07-11T18:48:33.445Z,16.00
2018-07-11T18:57:04.406Z,15.80
2018-07-11T19:03:24.413Z,15.50
2018-07-11T19:09:53.385Z,15.20
2018-07-11T19:16:16.747Z,15.00
2018-07-11T19:22:40.188Z,15.00
2018-07-11T19:28:59.774Z,14.90
2018-07-11T19:36:25.404Z,14.80
2018-07-11T19:42:51.599Z,14.70
2018-07-11T19:49:10.677Z,14.80
2018-07-11T19:57:28.460Z,15.00
2018-07-11T20:03:34.340Z,15.10
2018-07-11T20:09:40.938Z,15.10
2018-07-11T20:15:46.899Z,15.10
2018-07-11T20:21:53.740Z,15.10
2018-07-11T20:27:59.984Z,15.00
2018-07-11T20:34:06.377Z,14.90
2018-07-11T20:40:11.997Z,14.80
2018-07-11T20:46:17.882Z,14.60
2018-07-11T20:52:23.820Z,14.50
2018-07-11T20:58:46.573Z,14.40
2018-07-11T21:09:21.487Z,14.20
2018-07-11T21:18:53.244Z,14.10
2018-07-11T21:24:58.955Z,13.90
2018-07-11T21:31:05.274Z,14.00
2018-07-11T21:37:11.648Z,14.10
2018-07-11T21:55:29.016Z,14.40
2018-07-11T22:01:34.677Z,14.60
2018-07-11T22:07:40.786Z,14.70
2018-07-11T22:13:46.481Z,14.80
2018-07-11T22:19:50.821Z,14.80
2018-07-11T22:25:55.527Z,14.80
2018-07-11T22:31:59.033Z,14.80
2018-07-11T22:38:02.605Z,14.80
2018-07-11T22:44:06.159Z,14.70
2018-07-11T22:50:09.696Z,14.70
2018-07-11T22:56:13.241Z,14.70
2018-07-11T23:02:16.774Z,14.60
2018-07-11T23:08:20.733Z,14.60
2018-07-11T23:14:24.657Z,14.70
2018-07-11T23:20:28.295Z,14.70
2018-07-11T23:26:31.831Z,14.70
2018-07-11T23:32:35.399Z,14.70
2018-07-11T23:38:39.276Z,14.70
2018-07-11T23:44:42.772Z,14.80
2018-07-11T23:50:46.664Z,14.70
2018-07-11T23:56:51.804Z,14.70
